Time;durP1;ratioP1;P1;durP2;ratioP2;P2;SDS_P1;SDS_P2;PMS_P1;PMS_P2;Temp;Humidity;BMP_temperature;BMP_pressure;BME280_temperature;BME280_humidity;BME280_pressure;Samples;Min_cycle;Max_cycle;Signal;HPM_P1;HPM_P2
2022/07/22 00:00:30;;;;;;;5.85;2.03;;;19.50;99.90;;;;;;2096331;28;20028;-69
2022/07/22 00:01:31;;;;;;;4.18;2.33;;;19.50;99.90;;;;;;2096624;28;20036;-69
2022/07/22 00:02:31;;;;;;;3.45;2.35;;;19.50;99.90;;;;;;2098660;28;20083;-69
2022/07/22 00:03:32;;;;;;;5.05;2.20;;;19.60;99.90;;;;;;2098848;28;20322;-69
2022/07/22 00:04:33;;;;;;;4.75;1.80;;;19.60;99.90;;;;;;2097910;28;20024;-69
2022/07/22 00:05:34;;;;;;;3.08;1.80;;;19.60;99.90;;;;;;2097883;28;20039;-69
2022/07/22 00:06:34;;;;;;;3.25;2.10;;;19.60;99.90;;;;;;2098362;28;20028;-69
2022/07/22 00:07:35;;;;;;;2.22;2.00;;;19.60;99.90;;;;;;2098962;28;20027;-69
2022/07/22 00:08:36;;;;;;;4.88;2.17;;;19.60;99.90;;;;;;2096140;28;20131;-69
2022/07/22 00:09:36;;;;;;;2.08;1.85;;;19.60;99.90;;;;;;2099343;28;20040;-69
2022/07/22 00:10:38;;;;;;;2.53;2.00;;;19.60;99.90;;;;;;2098358;28;20032;-69
2022/07/22 00:11:39;;;;;;;3.17;2.08;;;19.60;99.90;;;;;;2094778;28;20086;-69
2022/07/22 00:12:40;;;;;;;2.45;1.65;;;19.60;99.90;;;;;;2099680;28;20024;-69
2022/07/22 00:13:41;;;;;;;2.40;2.05;;;19.60;99.90;;;;;;2096612;28;20391;-69
2022/07/22 00:14:41;;;;;;;3.58;1.95;;;19.60;99.90;;;;;;2100003;28;20032;-69
2022/07/22 00:15:42;;;;;;;2.90;2.00;;;19.60;99.90;;;;;;2099747;28;20474;-69
2022/07/22 00:16:43;;;;;;;2.63;1.98;;;19.60;99.90;;;;;;2097992;28;20024;-69
2022/07/22 00:17:43;;;;;;;3.40;2.00;;;19.60;99.90;;;;;;2097429;28;20028;-69
2022/07/22 00:18:44;;;;;;;2.60;2.13;;;19.60;99.90;;;;;;2099326;28;20044;-69
2022/07/22 00:19:45;;;;;;;2.40;2.20;;;19.60;99.90;;;;;;2098040;28;20021;-69
2022/07/22 00:20:45;;;;;;;3.47;2.28;;;19.60;99.90;;;;;;2099292;28;20376;-69
2022/07/22 00:21:46;;;;;;;3.53;2.10;;;19.60;99.90;;;;;;2096396;28;20503;-69
2022/07/22 00:22:47;;;;;;;2.85;2.00;;;19.60;99.90;;;;;;2096963;28;20657;-69
2022/07/22 00:23:47;;;;;;;2.20;2.10;;;19.60;99.90;;;;;;2099169;28;20555;-69
2022/07/22 00:24:48;;;;;;;1.88;1.50;;;19.70;99.90;;;;;;2099254;28;20024;-69
2022/07/22 00:25:48;;;;;;;4.03;1.95;;;19.70;99.90;;;;;;2096214;28;20048;-69
2022/07/22 00:26:49;;;;;;;3.30;2.20;;;19.60;99.90;;;;;;2095961;28;20024;-69
2022/07/22 00:27:50;;;;;;;3.65;2.25;;;19.70;99.90;;;;;;2094555;28;20029;-69
2022/07/22 00:28:50;;;;;;;3.80;2.33;;;19.70;99.90;;;;;;2099680;28;20133;-69
2022/07/22 00:29:51;;;;;;;2.60;2.38;;;19.70;99.90;;;;;;2100309;28;20105;-69
2022/07/22 00:30:51;;;;;;;3.13;1.85;;;19.70;99.90;;;;;;2098294;28;20467;-69
2022/07/22 00:31:52;;;;;;;3.55;2.22;;;19.70;99.90;;;;;;2100037;28;20023;-69
2022/07/22 00:32:53;;;;;;;2.67;2.22;;;19.70;99.90;;;;;;2097700;28;20377;-69
2022/07/22 00:33:53;;;;;;;5.13;2.20;;;19.70;99.90;;;;;;2094151;28;20483;-69
2022/07/22 00:34:54;;;;;;;4.05;2.10;;;19.70;99.90;;;;;;2098168;28;20056;-69
2022/07/22 00:35:55;;;;;;;3.20;2.30;;;19.70;99.90;;;;;;2099305;28;20024;-69
2022/07/22 00:36:56;;;;;;;2.97;2.15;;;19.70;99.90;;;;;;2097992;28;20383;-69
2022/07/22 00:37:57;;;;;;;2.55;2.08;;;19.70;99.90;;;;;;2093970;28;20095;-69
2022/07/22 00:38:58;;;;;;;4.90;2.28;;;19.70;99.90;;;;;;2094060;28;20028;-69
2022/07/22 00:39:59;;;;;;;3.55;1.98;;;19.70;99.90;;;;;;2091226;28;20154;-69
2022/07/22 00:40:59;;;;;;;3.63;2.25;;;19.70;99.90;;;;;;2095551;28;20055;-69
2022/07/22 00:42:00;;;;;;;2.63;2.25;;;19.70;99.90;;;;;;2094167;28;20021;-69
2022/07/22 00:43:01;;;;;;;2.85;2.10;;;19.70;99.90;;;;;;2101686;28;20027;-69
2022/07/22 00:44:05;;;;;;;2.78;2.05;;;19.70;99.90;;;;;;2097130;28;20021;-69
2022/07/22 00:45:07;;;;;;;6.20;2.85;;;19.70;99.90;;;;;;2095488;28;20023;-69
2022/07/22 00:46:07;;;;;;;4.57;2.08;;;19.70;99.90;;;;;;2098016;28;20020;-69
2022/07/22 00:47:08;;;;;;;3.80;2.13;;;19.70;99.90;;;;;;2098585;28;20040;-69
2022/07/22 00:48:09;;;;;;;4.57;2.10;;;19.80;99.90;;;;;;2098177;28;20044;-69
2022/07/22 00:49:10;;;;;;;2.45;1.90;;;19.70;99.90;;;;;;2093303;28;20100;-69
2022/07/22 00:50:11;;;;;;;2.10;1.90;;;19.80;99.90;;;;;;2095198;28;20463;-69
2022/07/22 00:51:12;;;;;;;6.38;2.83;;;19.80;99.90;;;;;;2097512;28;20044;-69
2022/07/22 00:52:13;;;;;;;3.78;2.40;;;19.80;99.90;;;;;;2096847;28;20017;-69
2022/07/22 00:53:13;;;;;;;2.75;2.25;;;19.80;99.90;;;;;;2096497;28;20027;-69
2022/07/22 00:54:14;;;;;;;2.55;2.33;;;19.80;99.90;;;;;;2095177;28;20025;-69
2022/07/22 00:55:15;;;;;;;5.07;2.33;;;19.70;99.90;;;;;;2094591;28;20061;-69
2022/07/22 00:56:17;;;;;;;3.28;2.45;;;19.70;99.90;;;;;;2096249;28;20023;-69
2022/07/22 00:57:18;;;;;;;3.92;2.80;;;19.70;99.90;;;;;;2098704;28;20028;-69
2022/07/22 00:58:20;;;;;;;4.18;2.28;;;19.70;99.90;;;;;;2099138;28;20050;-69
2022/07/22 00:59:20;;;;;;;2.90;2.20;;;19.70;99.90;;;;;;2098488;28;20024;-69
2022/07/22 01:00:22;;;;;;;2.85;2.28;;;19.70;99.90;;;;;;2099892;28;20016;-69
2022/07/22 01:01:23;;;;;;;2.63;2.42;;;19.70;99.90;;;;;;2095559;28;20074;-69
2022/07/22 01:02:24;;;;;;;5.00;3.97;;;19.70;99.90;;;;;;2096481;28;20032;-69
2022/07/22 01:03:24;;;;;;;3.63;3.22;;;19.70;99.90;;;;;;2099815;28;20033;-69
2022/07/22 01:04:25;;;;;;;3.25;2.95;;;19.70;99.90;;;;;;2098344;28;20025;-68
2022/07/22 01:05:26;;;;;;;5.68;3.13;;;19.70;99.90;;;;;;2097389;28;20388;-68
2022/07/22 01:06:27;;;;;;;3.47;2.78;;;19.70;99.90;;;;;;2096660;28;20028;-68
2022/07/22 01:07:27;;;;;;;2.83;2.50;;;19.70;99.90;;;;;;2096580;28;20063;-69
2022/07/22 01:08:28;;;;;;;3.10;2.47;;;19.70;99.90;;;;;;2096157;28;20024;-69
2022/07/22 01:09:29;;;;;;;4.47;3.38;;;19.70;99.90;;;;;;2097631;28;20077;-69
2022/07/22 01:10:30;;;;;;;6.93;3.17;;;19.70;99.90;;;;;;2102115;28;20020;-69
2022/07/22 01:11:30;;;;;;;3.22;2.92;;;19.70;99.90;;;;;;2097677;28;20023;-69
2022/07/22 01:12:31;;;;;;;2.97;2.05;;;19.70;99.90;;;;;;2100272;28;20025;-69
2022/07/22 01:13:32;;;;;;;3.75;2.40;;;19.70;99.90;;;;;;2092480;28;20100;-69
2022/07/22 01:14:32;;;;;;;3.63;2.58;;;19.70;99.90;;;;;;2100844;28;20017;-68
2022/07/22 01:15:33;;;;;;;3.58;3.20;;;19.70;99.90;;;;;;2099789;28;20029;-69
2022/07/22 01:16:35;;;;;;;4.00;2.47;;;19.70;99.90;;;;;;2095688;28;20487;-69
2022/07/22 01:17:36;;;;;;;3.78;2.55;;;19.70;99.90;;;;;;2099133;28;20034;-69
2022/07/22 01:18:38;;;;;;;2.92;2.60;;;19.70;99.90;;;;;;2093973;28;20031;-69
2022/07/22 01:19:39;;;;;;;4.05;2.88;;;19.70;99.90;;;;;;2096485;28;20287;-69
2022/07/22 01:20:41;;;;;;;4.40;2.75;;;19.70;99.90;;;;;;2098673;28;20090;-69
2022/07/22 01:21:41;;;;;;;3.83;2.42;;;19.70;99.90;;;;;;2097269;28;20107;-69
2022/07/22 01:22:44;;;;;;;2.38;2.08;;;19.70;99.90;;;;;;2093704;28;20020;-69
2022/07/22 01:23:45;;;;;;;6.25;2.50;;;19.70;99.90;;;;;;2096294;28;20052;-69
2022/07/22 01:24:46;;;;;;;3.72;2.65;;;19.70;99.90;;;;;;2095282;28;20032;-69
2022/07/22 01:25:47;;;;;;;3.88;2.60;;;19.60;99.90;;;;;;2099963;28;20051;-69
2022/07/22 01:26:47;;;;;;;3.60;2.15;;;19.60;99.90;;;;;;2100143;28;20047;-69
2022/07/22 01:27:48;;;;;;;4.60;2.20;;;19.60;99.90;;;;;;2101281;28;20387;-69
2022/07/22 01:28:49;;;;;;;3.58;2.22;;;19.60;99.90;;;;;;2096650;28;20166;-69
2022/07/22 01:29:49;;;;;;;2.83;2.28;;;19.50;99.90;;;;;;2093787;28;20137;-69
2022/07/22 01:30:50;;;;;;;2.60;2.15;;;19.60;99.90;;;;;;2094729;28;20044;-69
2022/07/22 01:31:51;;;;;;;4.35;2.28;;;19.60;99.90;;;;;;2099352;28;20033;-69
2022/07/22 01:32:51;;;;;;;6.90;2.50;;;19.50;99.90;;;;;;2098149;28;20463;-69
2022/07/22 01:33:52;;;;;;;6.68;2.47;;;19.50;99.90;;;;;;2093283;28;20027;-69
2022/07/22 01:34:53;;;;;;;6.03;2.17;;;19.60;99.90;;;;;;2091865;28;20419;-69
2022/07/22 01:35:53;;;;;;;3.28;2.20;;;19.50;99.90;;;;;;2091273;28;20012;-69
2022/07/22 01:36:54;;;;;;;4.93;2.05;;;19.50;99.90;;;;;;2094798;28;20024;-69
2022/07/22 01:37:54;;;;;;;4.43;2.50;;;19.50;99.90;;;;;;2092871;28;20468;-69
2022/07/22 01:38:56;;;;;;;3.05;2.10;;;19.50;99.90;;;;;;2099818;28;20095;-69
2022/07/22 01:39:56;;;;;;;3.30;2.03;;;19.50;99.90;;;;;;2095650;28;20059;-69
2022/07/22 01:40:57;;;;;;;4.28;1.75;;;19.50;99.90;;;;;;2096051;28;20020;-69
2022/07/22 01:41:57;;;;;;;2.80;1.90;;;19.40;99.90;;;;;;2098588;28;20051;-69
2022/07/22 01:42:58;;;;;;;5.90;1.92;;;19.40;99.90;;;;;;2097890;28;20029;-68
2022/07/22 01:43:59;;;;;;;2.25;1.73;;;19.40;99.90;;;;;;2095013;28;20024;-69
2022/07/22 01:44:59;;;;;;;6.72;1.92;;;19.40;99.90;;;;;;2092792;28;20095;-69
2022/07/22 01:46:00;;;;;;;3.55;1.80;;;19.40;99.90;;;;;;2097747;28;20099;-69
2022/07/22 01:47:01;;;;;;;6.03;2.22;;;19.50;99.90;;;;;;2090937;28;20074;-69
2022/07/22 01:48:02;;;;;;;4.47;2.40;;;19.40;99.90;;;;;;2093240;28;20020;-69
2022/07/22 01:49:03;;;;;;;2.35;1.77;;;19.40;99.90;;;;;;2092349;28;20486;-69
2022/07/22 01:50:07;;;;;;;4.45;2.15;;;19.40;99.90;;;;;;2095926;28;20387;-69
2022/07/22 01:51:08;;;;;;;3.13;1.73;;;19.40;99.90;;;;;;2096356;28;20415;-69
2022/07/22 01:52:08;;;;;;;2.47;1.80;;;19.30;99.90;;;;;;2093504;28;20017;-69
2022/07/22 01:53:09;;;;;;;3.22;2.03;;;19.30;99.90;;;;;;2095028;28;20430;-69
2022/07/22 01:54:10;;;;;;;4.47;2.00;;;19.30;99.90;;;;;;2097052;28;20029;-69
2022/07/22 01:55:12;;;;;;;2.53;1.80;;;19.30;99.90;;;;;;2096117;28;20052;-69
2022/07/22 01:56:12;;;;;;;5.00;2.47;;;19.30;99.90;;;;;;2096995;28;20482;-69
2022/07/22 01:57:13;;;;;;;4.93;2.28;;;19.30;99.90;;;;;;2096509;28;20383;-69
2022/07/22 01:58:14;;;;;;;5.82;2.50;;;19.30;99.90;;;;;;2095821;28;20378;-69
2022/07/22 01:59:14;;;;;;;2.20;1.90;;;19.30;99.90;;;;;;2096228;28;20535;-69
2022/07/22 02:00:16;;;;;;;3.28;1.85;;;19.30;99.90;;;;;;2097079;28;20393;-68
2022/07/22 02:01:16;;;;;;;5.90;2.35;;;19.30;99.90;;;;;;2096754;28;20054;-69
2022/07/22 02:02:17;;;;;;;1.90;1.60;;;19.20;99.90;;;;;;2095986;28;20467;-69
2022/07/22 02:03:18;;;;;;;2.50;1.52;;;19.30;99.90;;;;;;2096352;28;20184;-69
2022/07/22 02:04:18;;;;;;;4.78;2.05;;;19.20;99.90;;;;;;2097331;28;20407;-69
2022/07/22 02:05:19;;;;;;;2.92;2.20;;;19.30;99.90;;;;;;2097291;28;20028;-69
2022/07/22 02:06:19;;;;;;;4.55;2.70;;;19.30;99.90;;;;;;2093775;28;20074;-69
2022/07/22 02:07:20;;;;;;;3.55;2.38;;;19.30;99.90;;;;;;2097645;28;20433;-69
2022/07/22 02:08:21;;;;;;;4.88;2.13;;;19.30;99.90;;;;;;2100269;28;20539;-69
2022/07/22 02:09:21;;;;;;;5.90;2.40;;;19.30;99.90;;;;;;2094708;28;20017;-69
2022/07/22 02:10:22;;;;;;;7.75;2.72;;;19.30;99.90;;;;;;2099572;28;20062;-69
2022/07/22 02:11:23;;;;;;;3.83;1.85;;;19.30;99.90;;;;;;2097385;28;20511;-69
2022/07/22 02:12:24;;;;;;;2.55;1.80;;;19.30;99.90;;;;;;2097649;28;20400;-69
2022/07/22 02:13:24;;;;;;;2.80;2.25;;;19.30;99.90;;;;;;2098485;28;20017;-69
2022/07/22 02:14:25;;;;;;;4.93;2.55;;;19.30;99.90;;;;;;2094948;28;20068;-69
2022/07/22 02:15:26;;;;;;;3.15;1.58;;;19.30;99.90;;;;;;2094359;28;20013;-69
2022/07/22 02:16:27;;;;;;;7.03;2.53;;;19.30;99.90;;;;;;2098555;28;20654;-69
2022/07/22 02:17:28;;;;;;;3.88;1.90;;;19.30;99.90;;;;;;2097001;28;20603;-69
2022/07/22 02:18:29;;;;;;;4.68;2.50;;;19.30;99.90;;;;;;2092900;28;20020;-69
2022/07/22 02:19:29;;;;;;;6.32;2.25;;;19.30;99.90;;;;;;2095597;28;20020;-69
2022/07/22 02:20:30;;;;;;;2.60;2.30;;;19.30;99.90;;;;;;2095423;28;20110;-69
2022/07/22 02:21:31;;;;;;;1.88;1.70;;;19.30;99.90;;;;;;2098624;28;20102;-69
2022/07/22 02:22:31;;;;;;;2.55;2.13;;;19.30;99.90;;;;;;2098461;28;20020;-69
2022/07/22 02:23:32;;;;;;;5.88;2.17;;;19.30;99.90;;;;;;2094237;28;20035;-69
2022/07/22 02:24:32;;;;;;;6.13;2.40;;;19.30;99.90;;;;;;2097948;28;20051;-69
2022/07/22 02:25:34;;;;;;;4.18;2.10;;;19.30;99.90;;;;;;2098264;28;20033;-69
2022/07/22 02:26:35;;;;;;;4.25;2.22;;;19.30;99.90;;;;;;2095669;28;20115;-69
2022/07/22 02:27:35;;;;;;;5.78;2.40;;;19.30;99.90;;;;;;2099756;28;20020;-69
2022/07/22 02:28:36;;;;;;;4.18;2.60;;;19.30;99.90;;;;;;2095748;28;20031;-69
2022/07/22 02:29:37;;;;;;;4.60;2.53;;;19.30;99.90;;;;;;2094456;28;20052;-69
2022/07/22 02:30:38;;;;;;;10.63;3.15;;;19.30;99.90;;;;;;2094137;28;20487;-69
2022/07/22 02:31:38;;;;;;;4.32;2.40;;;19.30;99.90;;;;;;2091867;28;20032;-69
2022/07/22 02:32:39;;;;;;;9.13;3.05;;;19.30;99.90;;;;;;2089559;28;20086;-69
2022/07/22 02:33:40;;;;;;;2.42;2.03;;;19.30;99.90;;;;;;2092902;28;20383;-69
2022/07/22 02:34:40;;;;;;;3.55;2.50;;;19.30;99.90;;;;;;2098456;28;20021;-69
2022/07/22 02:35:41;;;;;;;6.55;2.97;;;19.30;99.90;;;;;;2097154;28;20463;-69
2022/07/22 02:36:41;;;;;;;5.63;3.00;;;19.30;99.90;;;;;;2097325;28;20048;-69
2022/07/22 02:37:42;;;;;;;3.67;2.00;;;19.30;99.90;;;;;;2095582;28;20025;-69
2022/07/22 02:38:45;;;;;;;3.75;2.13;;;19.30;99.90;;;;;;2097535;28;20078;-69
2022/07/22 02:39:46;;;;;;;3.28;2.35;;;19.30;99.90;;;;;;2096813;28;20360;-69
2022/07/22 02:40:47;;;;;;;2.33;2.13;;;19.30;99.90;;;;;;2096366;28;20076;-69
2022/07/22 02:41:47;;;;;;;4.28;2.72;;;19.30;99.90;;;;;;2092900;28;20020;-69
2022/07/22 02:42:48;;;;;;;3.42;2.63;;;19.30;99.90;;;;;;2093751;28;20028;-69
2022/07/22 02:43:48;;;;;;;4.43;2.70;;;19.30;99.90;;;;;;2093742;28;20476;-69
2022/07/22 02:44:49;;;;;;;4.05;2.72;;;19.30;99.90;;;;;;2094621;28;20048;-69
2022/07/22 02:45:50;;;;;;;4.53;2.42;;;19.30;99.90;;;;;;2098907;28;20036;-69
2022/07/22 02:46:50;;;;;;;5.43;1.90;;;19.30;99.90;;;;;;2093819;28;20039;-69
2022/07/22 02:47:54;;;;;;;3.45;2.25;;;19.30;99.90;;;;;;2092020;28;20028;-69
2022/07/22 02:48:55;;;;;;;7.80;2.83;;;19.30;99.90;;;;;;2098766;28;20027;-69
2022/07/22 02:49:55;;;;;;;3.03;2.20;;;19.30;99.90;;;;;;2095966;28;20299;-69
2022/07/22 02:50:56;;;;;;;4.63;2.53;;;19.30;99.90;;;;;;2097079;28;20472;-69
2022/07/22 02:51:57;;;;;;;3.55;2.45;;;19.30;99.90;;;;;;2095736;28;20017;-69
2022/07/22 02:52:57;;;;;;;3.75;2.70;;;19.30;99.90;;;;;;2097753;28;20078;-69
2022/07/22 02:53:58;;;;;;;3.00;2.38;;;19.30;99.90;;;;;;2096049;28;20054;-69
2022/07/22 02:54:59;;;;;;;5.15;2.13;;;19.30;99.90;;;;;;2096353;28;20023;-69
2022/07/22 02:55:59;;;;;;;3.85;2.60;;;19.20;99.90;;;;;;2096660;28;20020;-69
2022/07/22 02:57:00;;;;;;;5.47;2.42;;;19.30;99.90;;;;;;2097968;28;20079;-69
2022/07/22 02:58:05;;;;;;;3.58;2.53;;;19.30;99.90;;;;;;2095460;28;20067;-69
2022/07/22 02:59:05;;;;;;;4.10;2.60;;;19.30;99.90;;;;;;2097570;28;20020;-68
2022/07/22 03:00:09;;;;;;;3.72;2.45;;;19.30;99.90;;;;;;2094400;28;20028;-68
2022/07/22 03:01:09;;;;;;;8.32;2.40;;;19.30;99.90;;;;;;2096658;28;20029;-69
2022/07/22 03:02:10;;;;;;;4.90;2.83;;;19.30;99.90;;;;;;2091734;28;20021;-69
2022/07/22 03:03:11;;;;;;;4.10;2.17;;;19.30;99.90;;;;;;2097426;28;20020;-69
2022/07/22 03:04:11;;;;;;;5.00;2.30;;;19.30;99.90;;;;;;2098507;28;20027;-69
2022/07/22 03:05:12;;;;;;;4.85;2.50;;;19.30;99.90;;;;;;2096239;28;20016;-69
2022/07/22 03:06:13;;;;;;;7.32;2.70;;;19.30;99.90;;;;;;2095772;28;20012;-69
2022/07/22 03:07:13;;;;;;;4.55;2.97;;;19.30;99.90;;;;;;2100225;28;20024;-69
2022/07/22 03:08:14;;;;;;;12.60;2.70;;;19.30;99.90;;;;;;2096293;28;20012;-69
2022/07/22 03:09:15;;;;;;;5.60;2.83;;;19.30;99.90;;;;;;2098886;28;20047;-69
2022/07/22 03:10:15;;;;;;;7.57;3.03;;;19.30;99.90;;;;;;2097616;28;20036;-69
2022/07/22 03:11:16;;;;;;;4.35;2.13;;;19.30;99.90;;;;;;2095677;28;20021;-69
2022/07/22 03:12:16;;;;;;;5.05;2.85;;;19.30;99.90;;;;;;2097641;28;20464;-69
2022/07/22 03:13:17;;;;;;;4.18;2.22;;;19.30;99.90;;;;;;2095279;28;20420;-69
2022/07/22 03:14:18;;;;;;;4.45;2.58;;;19.20;99.90;;;;;;2095521;28;20108;-69
2022/07/22 03:15:18;;;;;;;2.58;2.00;;;19.20;99.90;;;;;;2095273;28;20029;-69
2022/07/22 03:16:19;;;;;;;3.70;2.58;;;19.20;99.90;;;;;;2094633;28;20028;-69
2022/07/22 03:17:20;;;;;;;6.10;2.60;;;19.20;99.90;;;;;;2098813;28;20658;-69
2022/07/22 03:18:21;;;;;;;3.75;2.15;;;19.20;99.90;;;;;;2101394;28;20020;-69
2022/07/22 03:19:22;;;;;;;7.70;2.95;;;19.20;99.90;;;;;;2099726;28;20103;-69
2022/07/22 03:20:22;;;;;;;6.03;3.17;;;19.20;99.90;;;;;;2099540;28;20055;-69
2022/07/22 03:21:23;;;;;;;3.65;2.20;;;19.20;99.90;;;;;;2093484;28;20017;-69
2022/07/22 03:22:24;;;;;;;4.55;2.63;;;19.20;99.90;;;;;;2095468;28;20538;-69
2022/07/22 03:23:24;;;;;;;5.50;2.53;;;19.20;99.90;;;;;;2098736;28;20436;-69
2022/07/22 03:24:25;;;;;;;5.15;2.42;;;19.20;99.90;;;;;;2098170;28;20511;-69
2022/07/22 03:25:25;;;;;;;5.13;3.03;;;19.20;99.90;;;;;;2097907;28;20435;-69
2022/07/22 03:26:26;;;;;;;8.88;3.17;;;19.20;99.90;;;;;;2098538;28;20020;-69
2022/07/22 03:27:28;;;;;;;5.05;3.47;;;19.20;99.90;;;;;;2092858;28;20051;-69
2022/07/22 03:28:28;;;;;;;4.97;2.97;;;19.20;99.90;;;;;;2091906;28;20025;-69
2022/07/22 03:29:29;;;;;;;4.10;3.30;;;19.20;99.90;;;;;;2097431;28;20040;-69
2022/07/22 03:30:31;;;;;;;6.00;3.28;;;19.20;99.90;;;;;;2096716;28;20032;-69
2022/07/22 03:31:31;;;;;;;8.30;3.08;;;19.20;99.90;;;;;;2098646;28;20141;-69
2022/07/22 03:32:32;;;;;;;6.38;3.35;;;19.20;99.90;;;;;;2098367;28;20075;-69
2022/07/22 03:33:32;;;;;;;6.05;2.88;;;19.20;99.90;;;;;;2097450;28;20111;-69
2022/07/22 03:34:33;;;;;;;7.82;3.38;;;19.20;99.90;;;;;;2100972;28;20024;-69
2022/07/22 03:35:34;;;;;;;5.90;3.08;;;19.20;99.90;;;;;;2099008;28;20024;-69
2022/07/22 03:36:35;;;;;;;5.32;3.30;;;19.20;99.90;;;;;;2097009;28;20020;-69
2022/07/22 03:37:36;;;;;;;8.20;3.25;;;19.20;99.90;;;;;;2096760;28;20524;-69
2022/07/22 03:38:37;;;;;;;5.75;2.83;;;19.20;99.90;;;;;;2094516;28;20108;-69
2022/07/22 03:39:38;;;;;;;7.50;3.03;;;19.20;99.90;;;;;;2093270;28;20028;-69
2022/07/22 03:40:38;;;;;;;6.47;3.30;;;19.20;99.90;;;;;;2097528;28;20060;-69
2022/07/22 03:41:39;;;;;;;5.68;3.03;;;19.20;99.90;;;;;;2095851;28;20043;-69
2022/07/22 03:42:40;;;;;;;7.72;3.08;;;19.20;99.90;;;;;;2095889;28;20025;-69
2022/07/22 03:43:40;;;;;;;6.50;3.10;;;19.20;99.90;;;;;;2096018;28;20013;-69
2022/07/22 03:44:41;;;;;;;7.75;3.05;;;19.20;99.90;;;;;;2094205;28;20029;-69
2022/07/22 03:45:41;;;;;;;6.45;2.97;;;19.20;99.90;;;;;;2098088;28;20082;-69
2022/07/22 03:46:42;;;;;;;8.43;3.55;;;19.20;99.90;;;;;;2100203;28;20028;-69
2022/07/22 03:47:43;;;;;;;2.97;2.05;;;19.20;99.90;;;;;;2100415;28;20352;-69
2022/07/22 03:48:43;;;;;;;4.50;2.00;;;19.20;99.90;;;;;;2098330;28;20125;-69
2022/07/22 03:49:44;;;;;;;7.00;2.80;;;19.10;99.90;;;;;;2098253;28;20433;-69
2022/07/22 03:50:44;;;;;;;4.22;2.30;;;19.20;99.90;;;;;;2097286;28;20039;-69
2022/07/22 03:51:45;;;;;;;6.90;2.60;;;19.20;99.90;;;;;;2099635;28;20082;-69
2022/07/22 03:52:46;;;;;;;5.40;2.58;;;19.20;99.90;;;;;;2101422;28;20016;-69
2022/07/22 03:53:46;;;;;;;7.15;2.40;;;19.10;99.90;;;;;;2098441;28;20050;-69
2022/07/22 03:54:47;;;;;;;6.90;3.50;;;19.10;99.90;;;;;;2098735;28;20495;-69
2022/07/22 03:55:48;;;;;;;5.35;2.78;;;19.10;99.90;;;;;;2095604;28;20029;-69
2022/07/22 03:56:48;;;;;;;4.78;2.58;;;19.10;99.90;;;;;;2095729;28;20016;-69
2022/07/22 03:57:49;;;;;;;5.53;2.58;;;19.10;99.90;;;;;;2094269;28;20032;-69
2022/07/22 03:58:50;;;;;;;6.38;2.45;;;19.10;99.90;;;;;;2098461;28;20028;-69
2022/07/22 03:59:50;;;;;;;6.68;2.67;;;19.10;99.90;;;;;;2101647;28;20411;-69
2022/07/22 04:00:51;;;;;;;5.10;2.67;;;19.10;99.90;;;;;;2096974;28;20715;-69
2022/07/22 04:01:51;;;;;;;5.10;2.70;;;19.10;99.90;;;;;;2097586;28;20032;-69
2022/07/22 04:02:52;;;;;;;8.38;2.92;;;19.10;99.90;;;;;;2097525;28;20028;-69
2022/07/22 04:03:53;;;;;;;6.38;2.95;;;19.10;99.90;;;;;;2101991;28;20023;-69
2022/07/22 04:04:53;;;;;;;6.55;2.58;;;19.10;99.90;;;;;;2096493;28;20016;-69
2022/07/22 04:05:54;;;;;;;4.88;2.80;;;19.10;99.90;;;;;;2099163;28;20024;-69
2022/07/22 04:06:55;;;;;;;6.20;2.95;;;19.10;99.90;;;;;;2095914;28;20020;-69
2022/07/22 04:07:55;;;;;;;4.05;2.60;;;19.20;99.90;;;;;;2096484;28;20020;-69
2022/07/22 04:08:56;;;;;;;6.35;2.20;;;19.10;99.90;;;;;;2097240;28;20020;-69
2022/07/22 04:10:04;;;;;;;5.53;2.17;;;19.20;99.90;;;;;;2098840;28;20051;-69
2022/07/22 04:11:05;;;;;;;8.18;2.92;;;19.20;99.90;;;;;;2097045;28;20032;-69
2022/07/22 04:12:06;;;;;;;6.15;2.53;;;19.20;99.90;;;;;;2094750;28;20868;-69
2022/07/22 04:13:06;;;;;;;5.18;2.08;;;19.20;99.90;;;;;;2091875;28;20464;-69
2022/07/22 04:14:07;;;;;;;7.65;2.50;;;19.10;99.90;;;;;;2097755;28;20475;-69
2022/07/22 04:15:08;;;;;;;4.85;2.25;;;19.10;99.90;;;;;;2099190;28;20027;-69
2022/07/22 04:16:08;;;;;;;5.15;2.28;;;19.10;99.90;;;;;;2099503;28;20047;-69
2022/07/22 04:17:09;;;;;;;5.03;2.47;;;19.10;99.90;;;;;;2101185;28;20033;-69
2022/07/22 04:18:10;;;;;;;7.65;3.10;;;19.10;99.90;;;;;;2094484;28;20059;-69
2022/07/22 04:19:10;;;;;;;5.45;2.30;;;19.10;99.90;;;;;;2096257;28;20053;-69
2022/07/22 04:20:11;;;;;;;6.85;3.22;;;19.10;99.90;;;;;;2098894;28;20070;-69
2022/07/22 04:21:12;;;;;;;7.00;3.00;;;19.10;99.90;;;;;;2097159;28;20115;-69
2022/07/22 04:22:12;;;;;;;5.57;2.60;;;19.10;99.90;;;;;;2096434;28;20685;-69
2022/07/22 04:23:13;;;;;;;8.80;3.10;;;19.10;99.90;;;;;;2095575;28;20025;-69
2022/07/22 04:24:13;;;;;;;7.15;2.95;;;19.10;99.90;;;;;;2093107;28;20060;-69
2022/07/22 04:25:14;;;;;;;5.47;3.03;;;19.10;99.90;;;;;;2095528;28;20029;-69
2022/07/22 04:26:15;;;;;;;5.88;3.13;;;19.10;99.90;;;;;;2096862;28;20017;-69
2022/07/22 04:27:15;;;;;;;4.93;2.65;;;19.10;99.90;;;;;;2095252;28;20021;-69
2022/07/22 04:28:16;;;;;;;7.88;3.33;;;19.10;99.90;;;;;;2099905;28;20032;-69
2022/07/22 04:29:17;;;;;;;7.30;3.05;;;19.10;99.90;;;;;;2094985;28;20047;-69
2022/07/22 04:30:18;;;;;;;5.55;2.60;;;19.10;99.90;;;;;;2098872;28;20032;-69
2022/07/22 04:31:18;;;;;;;6.10;3.03;;;19.10;99.90;;;;;;2101876;28;20045;-69
2022/07/22 04:32:19;;;;;;;7.93;2.95;;;19.10;99.90;;;;;;2093949;28;20028;-69
2022/07/22 04:33:20;;;;;;;8.27;3.25;;;19.10;99.90;;;;;;2097641;28;20031;-69
2022/07/22 04:34:20;;;;;;;3.70;2.72;;;19.10;99.90;;;;;;2092743;28;20012;-69
2022/07/22 04:35:21;;;;;;;3.50;2.10;;;19.10;99.90;;;;;;2093379;28;20116;-69
2022/07/22 04:36:21;;;;;;;7.95;3.05;;;19.10;99.90;;;;;;2097537;28;20016;-69
2022/07/22 04:37:22;;;;;;;4.57;2.65;;;19.20;99.90;;;;;;2096949;28;20591;-69
2022/07/22 04:38:23;;;;;;;6.75;3.45;;;19.20;99.90;;;;;;2098667;28;20100;-69
2022/07/22 04:39:23;;;;;;;5.93;2.78;;;19.20;99.90;;;;;;2095835;28;20062;-69
2022/07/22 04:40:24;;;;;;;5.28;2.60;;;19.20;99.90;;;;;;2095318;28;20025;-69
2022/07/22 04:41:25;;;;;;;6.28;2.92;;;19.20;99.90;;;;;;2098872;28;20368;-69
2022/07/22 04:42:25;;;;;;;7.60;3.20;;;19.20;99.90;;;;;;2096066;28;20033;-69
2022/07/22 04:43:26;;;;;;;4.97;2.67;;;19.20;99.90;;;;;;2100155;28;20020;-68
2022/07/22 04:44:26;;;;;;;7.47;3.10;;;19.20;99.90;;;;;;2097841;28;20021;-69
2022/07/22 04:45:27;;;;;;;7.85;3.40;;;19.20;99.90;;;;;;2095163;28;20024;-69
2022/07/22 04:46:28;;;;;;;5.38;2.58;;;19.20;99.90;;;;;;2098706;28;20564;-69
2022/07/22 04:47:28;;;;;;;9.82;3.55;;;19.20;99.90;;;;;;2094794;28;20244;-69
2022/07/22 04:48:29;;;;;;;8.18;3.85;;;19.20;99.90;;;;;;2098438;28;20024;-69
2022/07/22 04:49:30;;;;;;;6.72;2.78;;;19.20;99.90;;;;;;2099501;28;20074;-69
2022/07/22 04:50:30;;;;;;;8.60;3.10;;;19.20;99.90;;;;;;2098907;28;20029;-69
2022/07/22 04:51:31;;;;;;;6.40;3.33;;;19.20;99.90;;;;;;2095551;28;20041;-69
2022/07/22 04:52:31;;;;;;;9.18;3.13;;;19.20;99.90;;;;;;2091714;28;20032;-69
2022/07/22 04:53:32;;;;;;;7.93;3.13;;;19.20;99.90;;;;;;2098957;28;20338;-69
2022/07/22 04:54:32;;;;;;;6.57;3.35;;;19.20;99.90;;;;;;2097002;28;20028;-69
2022/07/22 04:55:33;;;;;;;7.75;3.22;;;19.20;99.90;;;;;;2098482;28;20447;-69
2022/07/22 04:56:34;;;;;;;4.25;2.97;;;19.20;99.90;;;;;;2100699;28;20486;-69
2022/07/22 04:57:34;;;;;;;8.38;3.20;;;19.20;99.90;;;;;;2098632;28;20024;-69
2022/07/22 04:58:35;;;;;;;5.78;3.20;;;19.20;99.90;;;;;;2094153;28;20025;-69
2022/07/22 04:59:36;;;;;;;7.88;3.10;;;19.20;99.90;;;;;;2101881;28;20107;-69
2022/07/22 05:00:36;;;;;;;5.85;3.40;;;19.20;99.90;;;;;;2099158;28;20106;-69
2022/07/22 05:01:37;;;;;;;7.70;3.08;;;19.30;99.90;;;;;;2096250;28;20431;-69
2022/07/22 05:02:38;;;;;;;6.22;3.22;;;19.30;99.90;;;;;;2097001;28;20023;-69
2022/07/22 05:03:42;;;;;;;5.65;2.92;;;19.30;99.90;;;;;;2093974;28;20061;-69
2022/07/22 05:04:43;;;;;;;8.20;3.78;;;19.30;99.90;;;;;;2097383;28;20368;-69
2022/07/22 05:05:43;;;;;;;4.93;3.00;;;19.30;99.90;;;;;;2095426;28;20078;-69
2022/07/22 05:06:44;;;;;;;4.50;2.60;;;19.30;99.90;;;;;;2095971;28;20031;-69
2022/07/22 05:07:45;;;;;;;9.18;4.22;;;19.30;99.90;;;;;;2094308;28;20056;-69
2022/07/22 05:08:45;;;;;;;7.32;3.40;;;19.20;99.90;;;;;;2092051;28;20111;-69
2022/07/22 05:09:46;;;;;;;7.15;3.22;;;19.20;99.90;;;;;;2098017;28;20033;-69
2022/07/22 05:10:46;;;;;;;6.70;3.35;;;19.20;99.90;;;;;;2104209;28;20471;-69
2022/07/22 05:11:47;;;;;;;8.52;4.00;;;19.20;99.90;;;;;;2096717;28;20547;-69
2022/07/22 05:12:48;;;;;;;4.93;3.10;;;19.20;99.90;;;;;;2099528;28;20021;-69
2022/07/22 05:13:48;;;;;;;10.13;3.72;;;19.20;99.90;;;;;;2097295;28;20021;-69
2022/07/22 05:14:49;;;;;;;11.45;4.38;;;19.20;99.90;;;;;;2096410;28;20384;-69
2022/07/22 05:15:49;;;;;;;6.55;3.90;;;19.20;99.90;;;;;;2095401;28;20160;-69